Terminal Aerodrome Forecast
Issued by NWS

Home | Current Version | Previous Version | Text Only | Print | Product List | Glossary On
Versions: 1 2 3 4 5 6 7 8 9 10 11 12 13
000
FTUS46 KSTO 202300
TAFSAC
TAF
KSAC 202323Z 2100/2124 21012KT P6SM BKN250
     FM211000 18007KT P6SM BKN010 BKN250
     FM211600 21012G18KT P6SM SCT250=

USA.gov is the U.S. government's official web portal to all federal, state and local government web resources and services.